< < Back
Terminal Aerodrome Forecast


Current Version              Previous Versions:   1  2  3  4  5  6  7  8  9  

Terminal Aerodrome Forecast

584
FTUS44 KMRX 281502 AAA
TAFTYS
TAF AMD
KTYS 281502Z 2815/2912 28010KT P6SM SCT020
     FM281600 29012G20KT P6SM SCT050
     FM290000 32006KT P6SM SCT250=



Latest METAR

401
SAUS80 KWBC 281800 RRA
MTRTYS
METAR KTYS 281753Z 26011KT 10SM BKN049 BKN055 26/15 A2996 RMK AO2 SLP136
T02610150 10261 20211 58003


USA.gov is the U.S. government's official web portal to all federal, state and local government web resources and services.